createdAt,value
2018-03-27T00:00:32.998Z,9.50
2018-03-27T00:01:33.145Z,9.50
2018-03-27T00:02:33.291Z,9.70
2018-03-27T00:03:33.437Z,8.50
2018-03-27T00:04:33.593Z,9.60
2018-03-27T00:05:33.729Z,8.70
2018-03-27T00:06:33.874Z,8.90
2018-03-27T00:07:34.032Z,10.30
2018-03-27T00:08:34.170Z,8.40
2018-03-27T00:09:34.314Z,8.10
2018-03-27T00:10:34.465Z,9.10
2018-03-27T00:11:34.607Z,7.10
2018-03-27T00:12:34.807Z,12.70
2018-03-27T00:13:34.901Z,8.80
2018-03-27T00:14:35.046Z,7.30
2018-03-27T00:15:35.194Z,6.90
2018-03-27T00:16:35.339Z,9.10
2018-03-27T00:17:35.485Z,6.50
2018-03-27T00:18:35.631Z,8.50
2018-03-27T00:19:35.780Z,8.10
2018-03-27T00:20:35.923Z,7.20
2018-03-27T00:21:36.069Z,9.90
2018-03-27T00:22:36.216Z,7.20
2018-03-27T00:23:36.363Z,8.20
2018-03-27T00:24:36.508Z,8.20
2018-03-27T00:25:36.652Z,8.30
2018-03-27T00:26:36.801Z,8.80
2018-03-27T00:27:36.950Z,10.30
2018-03-27T00:28:37.093Z,6.60
2018-03-27T00:29:37.239Z,7.40
2018-03-27T00:30:37.388Z,7.20
2018-03-27T00:31:37.533Z,8.60
2018-03-27T00:32:37.680Z,8.60
2018-03-27T00:33:37.830Z,8.10
2018-03-27T00:34:37.979Z,7.10
2018-03-27T00:35:38.121Z,9.00
2018-03-27T00:36:38.265Z,10.00
2018-03-27T00:37:38.416Z,7.90
2018-03-27T00:38:38.560Z,7.80
2018-03-27T00:39:38.707Z,7.90
2018-03-27T00:40:38.852Z,8.00
2018-03-27T00:41:38.997Z,8.40
2018-03-27T00:42:39.145Z,7.90
2018-03-27T00:43:39.293Z,8.10
2018-03-27T00:44:39.437Z,6.50
2018-03-27T00:45:39.581Z,8.70
2018-03-27T00:46:39.730Z,8.90
2018-03-27T00:47:39.880Z,8.00
2018-03-27T00:48:40.025Z,9.40
2018-03-27T00:49:40.173Z,9.20
2018-03-27T00:50:40.319Z,8.90
2018-03-27T00:51:40.475Z,8.10
2018-03-27T00:52:40.613Z,8.10
2018-03-27T00:53:40.761Z,7.60
2018-03-27T00:54:40.905Z,8.00
2018-03-27T00:55:41.052Z,8.30
2018-03-27T00:56:41.200Z,7.90
2018-03-27T00:57:41.345Z,7.40
2018-03-27T00:58:41.495Z,8.10
2018-03-27T00:59:41.638Z,8.70
2018-03-27T01:00:41.784Z,8.00
2018-03-27T01:01:41.931Z,8.10
2018-03-27T01:02:42.076Z,8.20
2018-03-27T01:03:42.222Z,8.40
2018-03-27T01:04:42.368Z,9.40
2018-03-27T01:05:42.514Z,6.70
2018-03-27T01:06:42.662Z,8.80
2018-03-27T01:07:42.813Z,9.00
2018-03-27T01:08:42.956Z,7.40
2018-03-27T01:09:43.100Z,7.50
2018-03-27T01:10:43.245Z,9.00
2018-03-27T01:11:43.390Z,9.50
2018-03-27T01:12:43.541Z,7.20
2018-03-27T01:13:43.686Z,7.50
2018-03-27T01:14:43.831Z,8.70
2018-03-27T01:15:43.979Z,7.40
2018-03-27T01:16:44.123Z,8.60
2018-03-27T01:17:44.269Z,7.90
2018-03-27T01:18:44.416Z,8.80
2018-03-27T01:19:44.560Z,9.40
2018-03-27T01:20:44.707Z,8.20
2018-03-27T01:21:44.852Z,10.00
2018-03-27T01:22:45.000Z,10.00
2018-03-27T01:23:45.144Z,9.20
2018-03-27T01:24:45.291Z,9.90
2018-03-27T01:25:45.438Z,9.20
2018-03-27T01:26:45.586Z,9.30
2018-03-27T01:27:45.731Z,8.80
2018-03-27T01:28:45.879Z,8.30
2018-03-27T01:29:46.022Z,9.00
2018-03-27T01:30:46.167Z,8.70
2018-03-27T01:31:46.313Z,10.10
2018-03-27T01:32:46.460Z,12.10
2018-03-27T01:33:46.606Z,8.90
2018-03-27T01:34:46.750Z,9.60
2018-03-27T01:35:46.898Z,9.50
2018-03-27T01:36:47.042Z,8.20
2018-03-27T01:37:47.187Z,10.60
2018-03-27T01:38:47.337Z,9.30
2018-03-27T01:41:42.102Z,10.10
2018-03-27T01:42:20.617Z,9.50
2018-03-27T01:43:20.756Z,9.40
2018-03-27T01:44:20.903Z,8.70
2018-03-27T01:45:21.052Z,9.50
2018-03-27T01:46:21.192Z,9.70
2018-03-27T01:47:21.338Z,9.20
2018-03-27T01:48:21.483Z,11.00
2018-03-27T01:49:21.629Z,9.70
2018-03-27T01:50:21.773Z,8.10
2018-03-27T01:51:21.919Z,9.30
2018-03-27T01:52:22.063Z,8.00
2018-03-27T01:53:22.208Z,8.40
2018-03-27T01:54:22.353Z,9.80
2018-03-27T01:55:22.504Z,8.80
2018-03-27T01:56:22.649Z,9.60
2018-03-27T01:57:22.795Z,8.50
2018-03-27T01:58:22.941Z,11.10
2018-03-27T01:59:23.084Z,10.40
2018-03-27T02:00:23.230Z,10.30
2018-03-27T02:01:23.377Z,9.50
2018-03-27T02:02:23.527Z,8.30
2018-03-27T02:03:23.669Z,9.00
2018-03-27T02:04:23.817Z,10.40
2018-03-27T02:05:23.960Z,9.50
2018-03-27T02:06:24.104Z,8.80
2018-03-27T02:07:24.250Z,6.90
2018-03-27T02:08:24.395Z,9.60
2018-03-27T02:09:24.542Z,9.40
2018-03-27T02:10:24.689Z,8.60
2018-03-27T02:11:24.833Z,9.30
2018-03-27T02:12:24.977Z,9.60
2018-03-27T02:13:25.124Z,9.20
2018-03-27T02:14:25.273Z,9.50
2018-03-27T02:15:25.415Z,8.30
2018-03-27T02:16:25.563Z,9.10
2018-03-27T02:17:25.711Z,8.80
2018-03-27T02:18:25.857Z,10.80
2018-03-27T02:19:26.003Z,9.00
2018-03-27T02:20:26.149Z,10.20
2018-03-27T02:21:26.293Z,9.40
2018-03-27T02:22:26.440Z,8.80
2018-03-27T02:23:26.588Z,9.80
2018-03-27T02:24:26.738Z,8.90
2018-03-27T02:25:26.883Z,9.00
2018-03-27T02:26:27.027Z,8.10
2018-03-27T02:27:27.174Z,7.40
2018-03-27T02:28:27.314Z,8.60
2018-03-27T02:29:27.473Z,8.80
2018-03-27T02:30:27.609Z,8.60
2018-03-27T02:31:27.752Z,8.80
2018-03-27T02:32:27.896Z,7.20
2018-03-27T02:33:28.046Z,9.40
2018-03-27T02:34:28.191Z,9.60
2018-03-27T02:35:28.336Z,7.90
2018-03-27T02:36:28.483Z,9.00
2018-03-27T02:37:28.628Z,8.40
2018-03-27T02:38:28.778Z,8.50
2018-03-27T02:39:28.923Z,8.50
2018-03-27T02:40:29.066Z,8.60
2018-03-27T02:41:29.211Z,8.20
2018-03-27T02:42:29.359Z,10.50
2018-03-27T02:43:29.503Z,9.50
2018-03-27T02:44:29.651Z,8.80
2018-03-27T02:45:29.794Z,10.00
2018-03-27T02:46:29.944Z,10.50
2018-03-27T02:47:30.087Z,8.80
2018-03-27T02:48:30.234Z,9.20
2018-03-27T02:49:30.378Z,8.50
2018-03-27T02:50:30.527Z,9.30
2018-03-27T02:51:30.673Z,10.20
2018-03-27T02:52:30.818Z,10.80
2018-03-27T02:53:30.966Z,10.40
2018-03-27T02:54:31.111Z,11.20
2018-03-27T02:55:31.258Z,9.90
2018-03-27T02:56:31.404Z,9.10
2018-03-27T02:57:31.546Z,9.90
2018-03-27T02:58:31.693Z,11.10
2018-03-27T02:59:31.842Z,10.60
2018-03-27T03:00:31.991Z,10.30
2018-03-27T03:01:32.134Z,9.10
2018-03-27T03:02:32.279Z,11.10
2018-03-27T03:03:32.425Z,10.70
2018-03-27T03:04:32.568Z,12.60
2018-03-27T03:05:32.719Z,10.80
2018-03-27T03:06:32.867Z,10.30
2018-03-27T03:07:33.010Z,10.70
2018-03-27T03:08:33.156Z,10.30
2018-03-27T03:09:33.304Z,10.60
2018-03-27T03:10:33.448Z,10.10
2018-03-27T03:11:33.593Z,10.20
2018-03-27T03:12:33.738Z,10.00
2018-03-27T03:13:33.883Z,10.40
2018-03-27T03:14:34.029Z,10.30
2018-03-27T03:15:34.176Z,11.10
2018-03-27T03:16:34.323Z,9.90
2018-03-27T03:17:34.467Z,11.50
2018-03-27T03:18:34.612Z,10.00
2018-03-27T03:19:34.761Z,10.70
2018-03-27T03:20:34.906Z,11.00
2018-03-27T03:21:35.053Z,9.50
2018-03-27T03:22:35.199Z,10.00
2018-03-27T03:23:35.343Z,10.90
2018-03-27T03:24:35.491Z,11.40
2018-03-27T03:25:35.633Z,11.00
2018-03-27T03:26:35.780Z,10.90
2018-03-27T03:27:35.925Z,9.90
2018-03-27T03:28:36.072Z,10.20
2018-03-27T03:29:36.216Z,10.70
2018-03-27T03:30:36.366Z,10.10
2018-03-27T03:31:36.519Z,10.30
2018-03-27T03:32:36.655Z,12.40
2018-03-27T03:33:36.804Z,10.70
2018-03-27T03:34:36.955Z,11.20
2018-03-27T03:35:37.094Z,13.90
2018-03-27T03:36:37.240Z,10.60
2018-03-27T03:37:37.384Z,12.40
2018-03-27T03:38:37.527Z,11.60
2018-03-27T03:39:37.673Z,10.40
2018-03-27T03:40:37.817Z,12.20
2018-03-27T03:41:37.965Z,13.10
2018-03-27T03:42:38.112Z,14.60
2018-03-27T03:43:38.257Z,10.00
2018-03-27T03:44:38.402Z,11.20
2018-03-27T03:45:38.548Z,12.10
2018-03-27T03:46:38.693Z,10.80
2018-03-27T03:47:38.840Z,9.80
2018-03-27T03:48:38.988Z,10.40
2018-03-27T03:49:39.133Z,10.50
2018-03-27T03:50:39.279Z,10.80
2018-03-27T03:51:39.425Z,11.50
2018-03-27T03:52:39.572Z,11.20
2018-03-27T03:53:39.718Z,9.90
2018-03-27T03:54:39.862Z,11.80
2018-03-27T03:55:40.011Z,13.00
2018-03-27T03:56:40.155Z,11.60
2018-03-27T03:57:40.299Z,11.50
2018-03-27T03:58:40.446Z,11.50
2018-03-27T03:59:40.601Z,10.40
2018-03-27T04:00:40.742Z,12.00
2018-03-27T04:01:40.886Z,11.90
2018-03-27T04:02:41.031Z,12.00
2018-03-27T04:03:41.175Z,11.10
2018-03-27T04:04:41.322Z,11.20
2018-03-27T04:05:41.466Z,12.90
2018-03-27T04:06:41.613Z,12.50
2018-03-27T04:07:41.758Z,12.30
2018-03-27T04:08:41.902Z,11.60
2018-03-27T04:09:42.049Z,12.10
2018-03-27T04:10:42.197Z,12.00
2018-03-27T04:11:42.344Z,10.50
2018-03-27T04:12:42.489Z,11.70
2018-03-27T04:13:42.643Z,12.60
2018-03-27T04:14:42.779Z,12.80
2018-03-27T04:15:42.927Z,11.30
2018-03-27T04:16:43.073Z,11.60
2018-03-27T04:17:43.220Z,12.20
2018-03-27T04:18:43.369Z,12.40
2018-03-27T04:19:43.510Z,14.30
2018-03-27T04:20:43.658Z,12.80
2018-03-27T04:21:43.804Z,12.70
2018-03-27T04:22:43.951Z,12.20
2018-03-27T04:23:44.094Z,13.80
2018-03-27T04:24:44.241Z,9.40
2018-03-27T04:25:44.388Z,12.40
2018-03-27T04:26:44.534Z,9.60
2018-03-27T04:27:44.681Z,12.30
2018-03-27T04:28:44.828Z,11.40
2018-03-27T04:29:44.972Z,11.20
2018-03-27T04:30:45.124Z,10.90
2018-03-27T04:31:45.266Z,9.80
2018-03-27T04:32:45.415Z,10.70
2018-03-27T04:33:45.559Z,12.20
2018-03-27T04:34:45.706Z,10.80
2018-03-27T04:35:45.851Z,10.70
2018-03-27T04:36:45.997Z,12.20
2018-03-27T04:37:46.144Z,12.70
2018-03-27T04:38:46.292Z,13.20
2018-03-27T04:39:46.436Z,10.60
2018-03-27T04:40:46.637Z,12.50
2018-03-27T04:41:46.728Z,12.60
2018-03-27T04:42:46.874Z,12.40
2018-03-27T04:43:47.024Z,10.70
2018-03-27T04:44:47.168Z,12.70
2018-03-27T04:45:47.313Z,11.40
2018-03-27T04:46:47.459Z,11.60
2018-03-27T04:47:47.610Z,11.10
2018-03-27T04:48:47.759Z,10.10
2018-03-27T04:49:47.897Z,9.90
2018-03-27T04:50:48.044Z,10.90
2018-03-27T04:51:48.190Z,12.60
2018-03-27T04:52:48.333Z,11.90
2018-03-27T04:53:48.480Z,10.40
2018-03-27T04:54:48.626Z,14.90
2018-03-27T04:55:48.773Z,11.70
2018-03-27T04:56:48.923Z,11.90
2018-03-27T04:57:49.067Z,11.70
2018-03-27T04:58:49.214Z,10.60
2018-03-27T04:59:49.359Z,10.70
2018-03-27T05:00:49.504Z,12.20
2018-03-27T05:01:49.653Z,11.10
2018-03-27T05:02:49.801Z,14.10
2018-03-27T05:03:49.946Z,12.90
2018-03-27T05:04:50.091Z,11.10
2018-03-27T05:05:50.238Z,11.30
2018-03-27T05:06:50.387Z,12.60
2018-03-27T05:07:50.536Z,13.30
2018-03-27T05:08:50.679Z,13.10
2018-03-27T05:09:50.825Z,10.60
2018-03-27T05:10:50.968Z,11.80
2018-03-27T05:11:51.117Z,14.70
2018-03-27T05:12:51.263Z,11.50
2018-03-27T05:13:51.409Z,10.50
2018-03-27T05:14:51.557Z,14.10
2018-03-27T05:15:51.704Z,11.80
2018-03-27T05:16:51.851Z,12.20
2018-03-27T05:17:51.998Z,12.20
2018-03-27T05:18:52.144Z,11.60
2018-03-27T05:19:52.291Z,11.60
2018-03-27T05:20:52.441Z,12.70
2018-03-27T05:21:52.585Z,10.80
2018-03-27T05:22:52.733Z,10.30
2018-03-27T05:23:52.878Z,9.50
2018-03-27T05:24:53.022Z,11.70
2018-03-27T05:25:53.170Z,10.50
2018-03-27T05:26:53.316Z,12.00
2018-03-27T05:27:53.461Z,10.40
2018-03-27T05:28:53.609Z,11.30
2018-03-27T05:29:53.753Z,12.10
2018-03-27T05:30:53.899Z,10.20
2018-03-27T05:31:54.048Z,11.70
2018-03-27T05:32:54.239Z,12.00
2018-03-27T05:33:54.339Z,11.80
2018-03-27T05:34:54.485Z,13.20
2018-03-27T05:35:54.633Z,12.10
2018-03-27T05:36:54.780Z,11.80
2018-03-27T05:37:54.927Z,11.30
2018-03-27T05:38:55.074Z,12.30
2018-03-27T05:39:55.217Z,11.60
2018-03-27T05:40:55.362Z,12.50
2018-03-27T05:41:55.509Z,11.60
2018-03-27T05:42:55.658Z,11.30
2018-03-27T05:43:55.804Z,11.20
2018-03-27T05:44:55.948Z,12.80
2018-03-27T05:45:56.095Z,10.90
2018-03-27T05:46:56.242Z,11.00
2018-03-27T05:47:56.388Z,10.80
2018-03-27T05:48:56.535Z,11.30
2018-03-27T05:49:56.682Z,10.80
2018-03-27T05:50:56.828Z,11.30
2018-03-27T05:51:56.977Z,12.60
2018-03-27T05:52:57.121Z,12.40
2018-03-27T05:53:57.266Z,12.40
2018-03-27T05:54:57.412Z,12.10
2018-03-27T05:55:57.591Z,11.50
2018-03-27T05:56:57.708Z,11.70
2018-03-27T05:57:57.852Z,11.20
2018-03-27T05:58:58.000Z,13.00
2018-03-27T05:59:58.148Z,11.70
2018-03-27T06:00:58.301Z,11.70
2018-03-27T06:01:58.442Z,10.90
2018-03-27T06:02:58.591Z,10.80
2018-03-27T06:03:58.736Z,11.80
2018-03-27T06:04:58.885Z,12.60
2018-03-27T06:05:59.030Z,14.30
2018-03-27T06:06:59.177Z,11.40
2018-03-27T06:07:59.320Z,11.30
2018-03-27T06:08:59.469Z,12.10
2018-03-27T06:09:59.615Z,11.90
2018-03-27T06:10:59.762Z,11.20
2018-03-27T06:11:59.911Z,10.70
2018-03-27T06:13:00.057Z,13.30
2018-03-27T06:14:00.202Z,12.50
2018-03-27T06:15:00.348Z,11.10
2018-03-27T06:16:00.496Z,13.70
2018-03-27T06:17:00.644Z,14.00
2018-03-27T06:18:00.790Z,12.70
2018-03-27T06:19:00.939Z,12.00
2018-03-27T06:20:01.081Z,12.50
2018-03-27T06:21:01.229Z,12.70
2018-03-27T06:22:01.379Z,12.80
2018-03-27T06:23:01.526Z,12.30
2018-03-27T06:24:01.673Z,13.00
2018-03-27T06:25:01.820Z,14.70
2018-03-27T06:26:01.974Z,13.70
2018-03-27T06:27:02.134Z,12.90
2018-03-27T06:28:02.258Z,12.80
2018-03-27T06:29:02.404Z,16.30
2018-03-27T06:30:02.552Z,14.00
2018-03-27T06:31:02.699Z,14.60
2018-03-27T06:32:02.852Z,13.50
2018-03-27T06:33:03.000Z,14.10
2018-03-27T06:34:03.141Z,13.60
2018-03-27T06:35:03.290Z,11.60
2018-03-27T06:36:03.434Z,12.60
2018-03-27T06:37:03.582Z,11.90
2018-03-27T06:38:03.730Z,13.60
2018-03-27T06:39:03.878Z,13.10
2018-03-27T06:40:04.023Z,13.70
2018-03-27T06:41:04.169Z,13.00
2018-03-27T06:42:04.343Z,14.00
2018-03-27T06:43:04.463Z,12.70
2018-03-27T06:44:04.612Z,12.80
2018-03-27T06:45:04.762Z,11.70
2018-03-27T06:46:04.905Z,12.80
2018-03-27T06:47:05.053Z,11.70
2018-03-27T06:48:05.200Z,11.90
2018-03-27T06:49:05.350Z,12.40
2018-03-27T06:50:05.495Z,12.40
2018-03-27T06:51:05.643Z,13.70
2018-03-27T06:52:05.787Z,12.80
2018-03-27T06:53:05.937Z,11.50
2018-03-27T06:54:06.084Z,12.30
2018-03-27T06:55:06.228Z,12.20
2018-03-27T06:56:06.376Z,11.40
2018-03-27T06:57:06.523Z,13.00
2018-03-27T06:58:06.670Z,12.70
2018-03-27T06:59:06.868Z,12.00
2018-03-27T07:00:06.965Z,13.10
2018-03-27T07:01:07.113Z,11.90
2018-03-27T07:02:07.260Z,12.20
2018-03-27T07:03:07.405Z,12.20
2018-03-27T07:04:07.553Z,11.90
2018-03-27T07:05:07.725Z,11.70
2018-03-27T07:06:07.845Z,11.70
2018-03-27T07:07:07.990Z,12.30
2018-03-27T07:08:08.143Z,14.10
2018-03-27T07:09:08.288Z,13.50
2018-03-27T07:10:08.433Z,12.90
2018-03-27T07:11:08.581Z,12.60
2018-03-27T07:12:08.728Z,12.90
2018-03-27T07:13:08.907Z,12.50
2018-03-27T07:14:09.035Z,14.20
2018-03-27T07:15:09.207Z,14.20
2018-03-27T07:16:09.354Z,13.00
2018-03-27T07:17:09.499Z,12.80
2018-03-27T07:18:09.614Z,11.90
2018-03-27T07:19:09.773Z,11.50
2018-03-27T07:20:09.907Z,13.50
2018-03-27T07:21:10.048Z,12.70
2018-03-27T07:22:10.194Z,13.40
2018-03-27T07:23:10.344Z,13.90
2018-03-27T07:24:10.492Z,13.10
2018-03-27T07:25:10.635Z,14.40
2018-03-27T07:26:10.783Z,12.60
2018-03-27T07:27:10.929Z,13.80
2018-03-27T07:28:11.075Z,14.80
2018-03-27T07:29:11.224Z,13.40
2018-03-27T07:30:11.370Z,14.40
2018-03-27T07:31:11.518Z,12.90
2018-03-27T07:32:11.666Z,12.80
2018-03-27T07:33:11.813Z,12.70
2018-03-27T07:34:11.958Z,12.30
2018-03-27T07:35:12.102Z,13.30
2018-03-27T07:36:12.254Z,13.20
2018-03-27T07:37:12.398Z,13.20
2018-03-27T07:38:12.551Z,12.40
2018-03-27T07:39:12.688Z,13.60
2018-03-27T07:40:12.836Z,13.30
2018-03-27T07:41:12.984Z,12.60
2018-03-27T07:42:13.133Z,14.40
2018-03-27T07:43:13.278Z,11.50
2018-03-27T07:44:13.435Z,13.10
2018-03-27T07:45:13.576Z,14.10
2018-03-27T07:46:13.727Z,12.90
2018-03-27T07:47:13.873Z,12.90
2018-03-27T07:48:14.020Z,11.50
2018-03-27T07:49:14.167Z,12.30
2018-03-27T07:50:14.314Z,12.40
2018-03-27T07:51:14.461Z,13.20
2018-03-27T07:52:14.609Z,14.50
2018-03-27T07:53:14.757Z,12.30
2018-03-27T07:54:14.903Z,14.20
2018-03-27T07:55:15.049Z,14.00
2018-03-27T07:56:15.199Z,13.30
2018-03-27T07:57:15.353Z,13.80
2018-03-27T07:58:15.534Z,13.30
2018-03-27T07:59:15.645Z,13.60
2018-03-27T08:00:15.796Z,13.30
2018-03-27T08:01:15.942Z,15.40
2018-03-27T08:02:16.090Z,13.20
2018-03-27T08:03:16.237Z,13.50
2018-03-27T08:04:16.385Z,13.40
2018-03-27T08:05:16.531Z,13.00
2018-03-27T08:06:16.680Z,13.60
2018-03-27T08:07:16.828Z,12.20
2018-03-27T08:08:16.976Z,14.00
2018-03-27T08:09:17.123Z,12.30
2018-03-27T08:10:17.269Z,14.20
2018-03-27T08:11:17.446Z,13.50
2018-03-27T08:12:17.566Z,12.70
2018-03-27T08:13:17.715Z,14.10
2018-03-27T08:14:17.863Z,13.20
2018-03-27T08:15:18.010Z,13.60
2018-03-27T08:16:18.156Z,15.10
2018-03-27T08:17:18.303Z,13.80
2018-03-27T08:18:18.450Z,15.20
2018-03-27T08:19:18.601Z,13.50
2018-03-27T08:20:18.752Z,13.90
2018-03-27T08:21:18.901Z,15.70
2018-03-27T08:22:19.049Z,15.50
2018-03-27T08:23:19.198Z,15.30
2018-03-27T08:24:19.419Z,15.10
2018-03-27T08:25:19.499Z,15.10
2018-03-27T08:26:19.756Z,16.70
2018-03-27T08:27:19.731Z,15.70
2018-03-27T08:28:19.888Z,16.70
2018-03-27T08:29:20.032Z,17.20
2018-03-27T08:30:20.180Z,16.00
2018-03-27T08:31:20.329Z,16.70
2018-03-27T08:32:20.479Z,17.10
2018-03-27T08:33:20.628Z,15.50
2018-03-27T08:34:20.776Z,18.10
2018-03-27T08:35:20.928Z,16.50
2018-03-27T08:36:21.094Z,15.80
2018-03-27T08:37:21.230Z,15.40
2018-03-27T08:38:21.374Z,15.10
2018-03-27T08:39:21.532Z,13.20
2018-03-27T08:40:21.674Z,14.90
2018-03-27T08:41:21.826Z,17.70
2018-03-27T08:42:21.974Z,19.00
2018-03-27T08:43:22.182Z,15.70
2018-03-27T08:44:22.276Z,16.40
2018-03-27T08:45:22.424Z,14.60
2018-03-27T08:46:22.573Z,15.00
2018-03-27T08:47:22.728Z,14.70
2018-03-27T08:48:22.870Z,15.30
2018-03-27T08:49:23.018Z,14.20
2018-03-27T08:50:23.172Z,14.40
2018-03-27T08:51:23.322Z,15.10
2018-03-27T08:52:23.471Z,15.50
2018-03-27T08:53:23.626Z,15.50
2018-03-27T08:54:23.788Z,15.30
2018-03-27T08:55:23.935Z,14.90
2018-03-27T08:56:24.087Z,16.00
2018-03-27T08:57:24.236Z,16.10
2018-03-27T08:58:24.386Z,15.70
2018-03-27T08:59:24.534Z,15.40
2018-03-27T09:00:24.684Z,14.90
2018-03-27T09:01:24.837Z,15.60
2018-03-27T09:02:24.984Z,16.50
2018-03-27T09:03:25.133Z,16.70
2018-03-27T09:04:25.308Z,16.40
2018-03-27T09:05:25.485Z,17.10
2018-03-27T09:06:25.583Z,17.80
2018-03-27T09:07:25.734Z,16.30
2018-03-27T09:08:25.884Z,17.00
2018-03-27T09:09:26.037Z,18.50
2018-03-27T09:10:26.189Z,19.90
2018-03-27T09:11:26.350Z,19.90
2018-03-27T09:12:26.485Z,20.60
2018-03-27T09:13:26.635Z,21.50
2018-03-27T09:14:26.786Z,20.00
2018-03-27T09:15:26.935Z,20.70
2018-03-27T09:16:27.084Z,19.50
2018-03-27T09:17:27.236Z,19.50
2018-03-27T09:18:27.381Z,20.40
2018-03-27T09:19:27.531Z,20.20
2018-03-27T09:20:27.680Z,20.90
2018-03-27T09:21:27.832Z,19.30
2018-03-27T09:22:27.977Z,20.90
2018-03-27T09:23:28.127Z,21.20
2018-03-27T09:24:28.275Z,22.40
2018-03-27T09:25:28.424Z,21.40
2018-03-27T09:26:28.580Z,20.80
2018-03-27T09:27:28.723Z,21.50
2018-03-27T09:28:28.872Z,21.40
2018-03-27T09:29:29.023Z,24.10
2018-03-27T09:30:29.171Z,22.50
2018-03-27T09:31:29.330Z,21.70
2018-03-27T09:32:29.477Z,22.20
2018-03-27T09:33:29.629Z,22.80
2018-03-27T09:34:29.780Z,23.20
2018-03-27T09:35:29.929Z,22.70
2018-03-27T09:36:30.081Z,22.00
2018-03-27T09:37:30.230Z,22.70
2018-03-27T09:38:30.378Z,21.80
2018-03-27T09:39:30.530Z,21.00
2018-03-27T09:40:30.678Z,20.00
2018-03-27T09:41:30.831Z,22.60
2018-03-27T09:42:30.984Z,19.60
2018-03-27T09:43:31.132Z,21.70
2018-03-27T09:44:31.284Z,19.30
2018-03-27T09:45:31.441Z,19.60
2018-03-27T09:46:31.585Z,19.70
2018-03-27T09:47:31.735Z,18.20
2018-03-27T09:48:31.887Z,18.30
2018-03-27T09:49:32.038Z,18.80
2018-03-27T09:50:32.186Z,20.20
2018-03-27T09:51:32.340Z,18.60
2018-03-27T09:52:32.490Z,17.70
2018-03-27T09:53:32.643Z,19.00
2018-03-27T09:54:32.793Z,14.80
2018-03-27T09:55:32.977Z,14.70
2018-03-27T09:56:33.228Z,13.90
2018-03-27T09:57:33.284Z,17.40
2018-03-27T09:58:33.433Z,15.80
2018-03-27T09:59:33.599Z,17.20
2018-03-27T10:00:33.735Z,18.50
2018-03-27T10:01:33.884Z,18.10
2018-03-27T10:02:34.035Z,17.40
2018-03-27T10:03:34.188Z,17.90
2018-03-27T10:04:34.335Z,21.60
2018-03-27T10:05:34.483Z,18.20
2018-03-27T10:06:34.645Z,16.20
2018-03-27T10:07:34.787Z,14.80
2018-03-27T10:08:34.939Z,14.90
2018-03-27T10:09:35.087Z,15.40
2018-03-27T10:10:35.237Z,15.20
2018-03-27T10:11:35.387Z,13.80
2018-03-27T10:12:35.537Z,14.80
2018-03-27T10:13:35.693Z,15.20
2018-03-27T10:14:35.836Z,13.20
2018-03-27T10:15:35.988Z,14.00
2018-03-27T10:16:36.137Z,13.60
2018-03-27T10:17:36.302Z,13.20
2018-03-27T10:18:36.446Z,12.00
2018-03-27T10:19:36.598Z,11.50
2018-03-27T10:20:36.750Z,12.20
2018-03-27T10:21:36.901Z,12.50
2018-03-27T10:22:37.052Z,11.40
2018-03-27T10:23:37.210Z,11.60
2018-03-27T10:24:37.356Z,11.40
2018-03-27T10:25:37.517Z,12.10
2018-03-27T10:26:37.676Z,11.00
2018-03-27T10:27:37.803Z,10.80
2018-03-27T10:28:37.954Z,12.10
2018-03-27T10:29:38.104Z,13.60
2018-03-27T10:30:38.257Z,13.40
2018-03-27T10:31:38.427Z,13.40
2018-03-27T10:32:38.560Z,14.00
2018-03-27T10:33:38.710Z,12.60
2018-03-27T10:34:38.860Z,13.40
2018-03-27T10:35:39.013Z,11.90
2018-03-27T10:36:39.167Z,11.80
2018-03-27T10:37:39.315Z,12.10
2018-03-27T10:38:39.466Z,12.20
2018-03-27T10:39:39.616Z,11.10
2018-03-27T10:40:39.768Z,9.90
2018-03-27T10:41:39.922Z,11.30
2018-03-27T10:42:40.078Z,10.50
2018-03-27T10:43:40.226Z,10.40
2018-03-27T10:44:40.385Z,9.30
2018-03-27T10:45:40.530Z,12.40
2018-03-27T10:46:40.681Z,11.70
2018-03-27T10:47:40.833Z,13.60
2018-03-27T10:48:40.984Z,11.60
2018-03-27T10:49:41.138Z,11.30
2018-03-27T10:50:41.287Z,11.20
2018-03-27T10:51:41.441Z,11.20
2018-03-27T10:52:41.595Z,12.30
2018-03-27T10:53:41.745Z,11.90
2018-03-27T10:54:41.900Z,11.40
2018-03-27T10:55:42.100Z,9.70
2018-03-27T10:56:42.203Z,9.60
2018-03-27T10:57:42.354Z,10.50
2018-03-27T10:58:42.507Z,9.60
2018-03-27T10:59:42.661Z,9.70
2018-03-27T11:00:42.815Z,10.60
2018-03-27T11:01:42.963Z,10.40
2018-03-27T11:02:43.116Z,9.50
2018-03-27T11:03:43.270Z,11.10
2018-03-27T11:04:43.434Z,9.20
2018-03-27T11:05:43.572Z,8.40
2018-03-27T11:06:43.728Z,10.30
2018-03-27T11:07:43.877Z,9.10
2018-03-27T11:08:44.030Z,8.70
2018-03-27T11:09:44.181Z,8.80
2018-03-27T11:10:44.331Z,10.20
2018-03-27T11:11:44.485Z,9.90
2018-03-27T11:12:44.638Z,9.00
2018-03-27T11:13:44.787Z,11.90
2018-03-27T11:14:44.941Z,9.60
2018-03-27T11:15:45.095Z,8.50
2018-03-27T11:16:45.246Z,9.30
2018-03-27T11:17:45.400Z,8.30
2018-03-27T11:18:45.554Z,9.40
2018-03-27T11:19:45.706Z,10.30
2018-03-27T11:20:45.860Z,9.40
2018-03-27T11:21:46.011Z,10.50
2018-03-27T11:22:46.158Z,9.80
2018-03-27T11:23:46.312Z,9.10
2018-03-27T11:24:46.465Z,10.20
2018-03-27T11:25:46.615Z,8.80
2018-03-27T11:26:46.770Z,9.10
2018-03-27T11:27:46.923Z,9.70
2018-03-27T11:28:47.074Z,8.90
2018-03-27T11:29:47.227Z,8.90
2018-03-27T11:30:47.377Z,9.10
2018-03-27T11:31:47.533Z,10.10
2018-03-27T11:32:47.693Z,9.00
2018-03-27T11:33:47.849Z,8.10
2018-03-27T11:34:47.998Z,8.40
2018-03-27T11:35:48.153Z,9.30
2018-03-27T11:36:48.304Z,8.90
2018-03-27T11:37:48.460Z,8.90
2018-03-27T11:38:48.613Z,9.00
2018-03-27T11:39:48.765Z,9.00
2018-03-27T11:40:48.917Z,9.50
2018-03-27T11:41:49.070Z,9.40
2018-03-27T11:42:49.224Z,10.40
2018-03-27T11:43:49.378Z,9.20
2018-03-27T11:44:49.529Z,9.90
2018-03-27T11:45:49.685Z,10.00
2018-03-27T11:46:49.841Z,9.10
2018-03-27T11:47:49.987Z,8.50
2018-03-27T11:48:50.139Z,8.90
2018-03-27T11:49:50.290Z,9.80
2018-03-27T11:50:50.444Z,10.00
2018-03-27T11:51:50.594Z,10.60
2018-03-27T11:52:50.750Z,8.60
2018-03-27T11:53:50.901Z,10.30
2018-03-27T11:54:51.054Z,9.60
2018-03-27T11:55:51.205Z,9.60
2018-03-27T11:56:51.360Z,8.40
2018-03-27T11:57:51.510Z,9.20
2018-03-27T11:58:51.665Z,9.10
2018-03-27T11:59:51.816Z,9.20
2018-03-27T12:00:51.968Z,10.10
2018-03-27T12:01:52.121Z,10.40
2018-03-27T12:02:52.274Z,9.50
2018-03-27T12:03:52.427Z,9.90
2018-03-27T12:04:52.579Z,10.60
2018-03-27T12:05:52.733Z,9.00
2018-03-27T12:06:52.884Z,9.70
2018-03-27T12:07:53.036Z,10.40
2018-03-27T12:08:53.187Z,10.60
2018-03-27T12:09:53.342Z,10.30
2018-03-27T12:10:53.493Z,9.80
2018-03-27T12:11:53.644Z,9.40
2018-03-27T12:12:53.798Z,9.60
2018-03-27T12:13:54.004Z,10.30
2018-03-27T12:14:54.101Z,10.40
2018-03-27T12:15:54.252Z,10.00
2018-03-27T12:16:54.404Z,9.30
2018-03-27T12:17:54.555Z,9.90
2018-03-27T12:18:54.716Z,9.90
2018-03-27T12:19:54.861Z,9.20
2018-03-27T12:20:55.012Z,9.30
2018-03-27T12:21:55.166Z,10.00
2018-03-27T12:22:55.322Z,10.90
2018-03-27T12:23:55.474Z,9.70
2018-03-27T12:24:55.625Z,10.00
2018-03-27T12:25:55.778Z,10.00
2018-03-27T12:26:55.927Z,10.70
2018-03-27T12:27:56.082Z,12.30
2018-03-27T12:28:56.245Z,12.80
2018-03-27T12:29:56.386Z,10.10
2018-03-27T12:30:56.541Z,11.10
2018-03-27T12:31:56.692Z,10.10
2018-03-27T12:32:56.845Z,12.70
2018-03-27T12:33:56.999Z,11.70
2018-03-27T12:34:57.147Z,11.60
2018-03-27T12:35:57.302Z,10.80
2018-03-27T12:36:57.497Z,11.60
2018-03-27T12:37:57.605Z,11.00
2018-03-27T12:38:57.758Z,11.10
2018-03-27T12:39:57.910Z,12.90
2018-03-27T12:40:58.067Z,11.20
2018-03-27T12:41:58.221Z,10.40
2018-03-27T12:42:58.373Z,12.20
2018-03-27T12:43:58.527Z,12.00
2018-03-27T12:44:58.679Z,9.80
2018-03-27T12:45:58.831Z,10.60
2018-03-27T12:46:58.985Z,11.40
2018-03-27T12:47:59.137Z,11.10
2018-03-27T12:48:59.289Z,11.20
2018-03-27T12:49:59.445Z,10.70
2018-03-27T12:50:59.600Z,11.50
2018-03-27T12:51:59.753Z,11.90
2018-03-27T12:52:59.911Z,11.90
2018-03-27T12:54:00.082Z,11.30
2018-03-27T12:55:00.233Z,11.50
2018-03-27T12:56:00.386Z,11.50
2018-03-27T12:57:00.542Z,11.80
2018-03-27T12:58:00.697Z,12.10
2018-03-27T12:59:00.897Z,11.00
2018-03-27T13:00:01.000Z,10.70
2018-03-27T13:01:01.153Z,12.30
2018-03-27T13:02:01.311Z,11.10
2018-03-27T13:03:01.457Z,11.70
2018-03-27T13:04:01.615Z,10.70